createdAt,value
2018-11-07T00:01:00.005Z,11.40
2018-11-07T00:03:27.663Z,11.40
2018-11-07T00:05:55.381Z,11.30
2018-11-07T00:08:23.367Z,11.30
2018-11-07T00:10:50.875Z,11.30
2018-11-07T00:13:18.637Z,11.30
2018-11-07T00:15:46.269Z,11.30
2018-11-07T00:18:14.037Z,11.30
2018-11-07T00:20:41.669Z,11.30
2018-11-07T00:23:09.283Z,11.30
2018-11-07T00:25:36.953Z,11.30
2018-11-07T00:28:04.727Z,11.30
2018-11-07T00:30:32.470Z,11.30
2018-11-07T00:33:00.165Z,11.30
2018-11-07T00:35:27.903Z,11.20
2018-11-07T00:37:55.684Z,11.30
2018-11-07T00:40:23.398Z,11.20
2018-11-07T00:42:51.038Z,11.20
2018-11-07T00:45:19.041Z,11.20
2018-11-07T00:47:46.735Z,11.20
2018-11-07T00:50:16.263Z,11.20
2018-11-07T00:52:44.341Z,11.10
2018-11-07T00:55:12.654Z,11.10
2018-11-07T00:57:40.601Z,11.10
2018-11-07T01:00:19.260Z,11.00
2018-11-07T01:02:53.859Z,10.90
2018-11-07T01:05:21.506Z,10.90
2018-11-07T01:07:49.236Z,10.90
2018-11-07T01:10:16.914Z,10.80
2018-11-07T01:12:44.619Z,10.80
2018-11-07T01:15:12.880Z,10.70
2018-11-07T01:17:40.562Z,10.70
2018-11-07T01:20:10.221Z,10.60
2018-11-07T01:22:38.562Z,10.60
2018-11-07T01:25:07.414Z,10.50
2018-11-07T01:27:35.420Z,10.50
2018-11-07T01:30:03.924Z,10.40
2018-11-07T01:32:31.583Z,10.40
2018-11-07T01:34:59.262Z,10.40
2018-11-07T01:37:26.983Z,10.40
2018-11-07T01:39:54.624Z,10.30
2018-11-07T01:42:22.284Z,10.30
2018-11-07T01:44:49.951Z,10.20
2018-11-07T01:47:17.609Z,10.20
2018-11-07T01:49:45.324Z,10.10
2018-11-07T01:52:13.012Z,10.10
2018-11-07T01:54:41.036Z,10.10
2018-11-07T01:57:08.673Z,10.00
2018-11-07T01:59:36.398Z,10.00
2018-11-07T02:02:04.047Z,9.90
2018-11-07T02:04:31.724Z,9.90
2018-11-07T02:06:59.334Z,9.90
2018-11-07T02:09:27.062Z,9.90
2018-11-07T02:11:54.684Z,9.80
2018-11-07T02:14:22.376Z,9.80
2018-11-07T02:16:50.108Z,9.80
2018-11-07T02:19:17.725Z,9.80
2018-11-07T02:21:45.325Z,9.80
2018-11-07T02:24:13.405Z,9.70
2018-11-07T02:26:41.068Z,9.70
2018-11-07T02:29:13.706Z,9.60
2018-11-07T02:31:43.442Z,9.60
2018-11-07T02:34:11.392Z,9.60
2018-11-07T02:36:39.048Z,9.50
2018-11-07T02:39:10.562Z,9.50
2018-11-07T02:41:38.590Z,9.50
2018-11-07T02:44:06.294Z,9.50
2018-11-07T02:46:33.918Z,9.40
2018-11-07T02:49:01.876Z,9.40
2018-11-07T02:51:29.528Z,9.40
2018-11-07T02:53:57.535Z,9.40
2018-11-07T02:56:25.225Z,9.40
2018-11-07T02:58:52.888Z,9.40
2018-11-07T03:01:20.717Z,9.40
2018-11-07T03:03:48.279Z,9.40
2018-11-07T03:06:15.972Z,9.30
2018-11-07T03:08:43.651Z,9.40
2018-11-07T03:11:11.306Z,9.30
2018-11-07T03:13:38.917Z,9.30
2018-11-07T03:16:06.590Z,9.30
2018-11-07T03:18:34.252Z,9.20
2018-11-07T03:21:01.894Z,9.10
2018-11-07T03:23:29.574Z,9.00
2018-11-07T03:25:57.553Z,8.90
2018-11-07T03:28:25.218Z,8.90
2018-11-07T03:30:52.865Z,8.90
2018-11-07T03:33:20.542Z,8.90
2018-11-07T03:35:48.277Z,8.90
2018-11-07T03:38:15.929Z,8.90
2018-11-07T03:40:43.687Z,8.80
2018-11-07T03:43:11.387Z,8.80
2018-11-07T03:45:44.862Z,8.80
2018-11-07T03:48:12.517Z,8.80
2018-11-07T03:50:40.216Z,8.80
2018-11-07T03:53:08.040Z,8.80
2018-11-07T03:55:35.740Z,8.80
2018-11-07T03:58:03.748Z,8.70
2018-11-07T04:00:31.476Z,8.70
2018-11-07T04:02:59.136Z,8.60
2018-11-07T04:05:26.852Z,8.70
2018-11-07T04:07:54.631Z,8.60
2018-11-07T04:10:22.304Z,8.60
2018-11-07T04:12:49.949Z,8.70
2018-11-07T04:15:17.721Z,8.70
2018-11-07T04:17:45.973Z,8.70
2018-11-07T04:20:13.672Z,8.70
2018-11-07T04:22:41.353Z,8.70
2018-11-07T04:25:09.485Z,8.60
2018-11-07T04:27:37.431Z,8.60
2018-11-07T04:30:07.845Z,8.70
2018-11-07T04:32:35.536Z,8.70
2018-11-07T04:35:03.427Z,8.70
2018-11-07T04:37:31.153Z,8.70
2018-11-07T04:39:58.838Z,8.70
2018-11-07T04:42:26.590Z,8.70
2018-11-07T04:44:54.260Z,8.60
2018-11-07T04:47:21.950Z,8.60
2018-11-07T04:49:49.653Z,8.60
2018-11-07T04:52:17.634Z,8.60
2018-11-07T04:54:46.637Z,8.60
2018-11-07T04:57:14.277Z,8.60
2018-11-07T04:59:42.042Z,8.60
2018-11-07T05:02:09.772Z,8.50
2018-11-07T05:04:37.445Z,8.60
2018-11-07T05:07:05.201Z,8.60
2018-11-07T05:09:32.929Z,8.60
2018-11-07T05:12:00.553Z,8.60
2018-11-07T05:14:28.311Z,8.60
2018-11-07T05:16:55.983Z,8.50
2018-11-07T05:19:23.705Z,8.60
2018-11-07T05:21:51.495Z,8.50
2018-11-07T05:24:19.248Z,8.50
2018-11-07T05:26:46.895Z,8.50
2018-11-07T05:29:14.571Z,8.50
2018-11-07T05:31:42.200Z,8.40
2018-11-07T05:34:09.892Z,8.40
2018-11-07T05:36:37.572Z,8.40
2018-11-07T05:39:07.242Z,8.30
2018-11-07T05:41:35.036Z,8.30
2018-11-07T05:44:02.829Z,8.30
2018-11-07T05:46:30.543Z,8.30
2018-11-07T05:48:58.280Z,8.40
2018-11-07T05:51:26.016Z,8.30
2018-11-07T05:53:53.719Z,8.20
2018-11-07T05:56:21.798Z,8.20
2018-11-07T05:58:49.530Z,8.20
2018-11-07T06:01:17.388Z,8.20
2018-11-07T06:03:45.250Z,8.20
2018-11-07T06:06:13.084Z,8.30
2018-11-07T06:08:40.858Z,8.30
2018-11-07T06:11:08.604Z,8.30
2018-11-07T06:13:36.376Z,8.30
2018-11-07T06:16:04.420Z,8.30
2018-11-07T06:18:32.158Z,8.30
2018-11-07T06:20:59.877Z,8.40
2018-11-07T06:23:27.639Z,8.40
2018-11-07T06:25:55.307Z,8.40
2018-11-07T06:28:22.974Z,8.40
2018-11-07T06:30:50.710Z,8.40
2018-11-07T06:33:18.396Z,8.30
2018-11-07T06:35:46.189Z,8.20
2018-11-07T06:38:13.904Z,8.30
2018-11-07T06:40:41.630Z,8.30
2018-11-07T06:43:09.449Z,8.30
2018-11-07T06:45:37.182Z,8.40
2018-11-07T06:48:04.921Z,8.40
2018-11-07T06:50:33.538Z,8.50
2018-11-07T06:53:01.302Z,8.50
2018-11-07T06:55:29.124Z,8.60
2018-11-07T06:57:56.767Z,8.60
2018-11-07T07:00:24.529Z,8.70
2018-11-07T07:02:52.255Z,8.80
2018-11-07T07:05:20.087Z,8.80
2018-11-07T07:07:47.843Z,8.90
2018-11-07T07:10:17.011Z,8.90
2018-11-07T07:12:44.733Z,8.90
2018-11-07T07:15:13.739Z,8.90
2018-11-07T07:17:41.567Z,9.00
2018-11-07T07:20:14.460Z,9.10
2018-11-07T07:22:42.810Z,9.10
2018-11-07T07:25:11.585Z,9.30
2018-11-07T07:27:39.754Z,9.40
2018-11-07T07:30:11.838Z,9.50
2018-11-07T07:32:40.201Z,9.70
2018-11-07T07:35:07.962Z,9.80
2018-11-07T07:37:35.713Z,9.90
2018-11-07T07:40:05.265Z,10.10
2018-11-07T07:42:33.009Z,10.20
2018-11-07T07:45:00.688Z,10.30
2018-11-07T07:47:28.435Z,10.40
2018-11-07T07:49:56.079Z,10.50
2018-11-07T07:52:23.797Z,10.70
2018-11-07T07:54:51.521Z,10.80
2018-11-07T07:57:19.240Z,11.00
2018-11-07T07:59:46.927Z,11.30
2018-11-07T08:02:14.699Z,11.50
2018-11-07T08:04:42.424Z,11.60
2018-11-07T08:07:10.125Z,11.80
2018-11-07T08:09:37.997Z,11.90
2018-11-07T08:12:05.915Z,12.10
2018-11-07T08:14:33.765Z,12.20
2018-11-07T08:17:01.481Z,12.20
2018-11-07T08:19:29.252Z,12.40
2018-11-07T08:21:57.014Z,12.50
2018-11-07T08:24:24.674Z,12.60
2018-11-07T08:26:52.392Z,12.70
2018-11-07T08:29:20.177Z,12.80
2018-11-07T08:31:47.871Z,12.90
2018-11-07T08:34:15.572Z,12.90
2018-11-07T08:36:43.291Z,12.90
2018-11-07T08:39:12.295Z,12.90
2018-11-07T08:41:40.410Z,13.10
2018-11-07T08:44:08.402Z,13.00
2018-11-07T08:46:36.065Z,13.00
2018-11-07T08:49:04.086Z,13.10
2018-11-07T08:51:32.042Z,13.20
2018-11-07T08:54:00.034Z,13.30
2018-11-07T08:56:27.874Z,13.30
2018-11-07T08:58:55.625Z,13.30
2018-11-07T09:01:23.592Z,13.30
2018-11-07T09:03:51.230Z,13.50
2018-11-07T09:06:18.924Z,13.50
2018-11-07T09:08:46.613Z,13.50
2018-11-07T09:11:14.326Z,13.70
2018-11-07T09:13:42.072Z,13.80
2018-11-07T09:16:09.782Z,13.80
2018-11-07T09:18:37.450Z,13.80
2018-11-07T09:21:05.227Z,13.80
2018-11-07T09:23:32.942Z,13.80
2018-11-07T09:26:00.641Z,13.80
2018-11-07T09:28:28.305Z,13.90
2018-11-07T09:30:55.997Z,13.90
2018-11-07T09:33:23.733Z,13.80
2018-11-07T09:35:51.396Z,13.70
2018-11-07T09:38:19.111Z,13.70
2018-11-07T09:40:46.844Z,13.70
2018-11-07T09:43:14.553Z,13.90
2018-11-07T09:45:42.305Z,14.00
2018-11-07T09:48:10.072Z,14.10
2018-11-07T09:50:37.784Z,14.20
2018-11-07T09:53:05.602Z,14.30
2018-11-07T09:55:33.378Z,14.40
2018-11-07T09:58:01.040Z,14.30
2018-11-07T10:00:29.015Z,14.50
2018-11-07T10:02:56.702Z,14.40
2018-11-07T10:05:24.498Z,14.50
2018-11-07T10:07:52.096Z,14.60
2018-11-07T10:10:20.774Z,14.50
2018-11-07T10:12:48.663Z,14.60
2018-11-07T10:15:16.619Z,14.50
2018-11-07T10:17:44.198Z,14.60
2018-11-07T10:20:19.821Z,14.70
2018-11-07T10:22:47.901Z,14.70
2018-11-07T10:25:15.768Z,14.60
2018-11-07T10:27:43.650Z,14.70
2018-11-07T10:30:13.514Z,14.80
2018-11-07T10:32:42.418Z,14.80
2018-11-07T10:35:10.432Z,15.00
2018-11-07T10:37:38.274Z,15.10
2018-11-07T10:40:14.932Z,15.00
2018-11-07T10:42:43.267Z,15.00
2018-11-07T10:45:11.526Z,15.10
2018-11-07T10:47:39.353Z,15.30
2018-11-07T10:50:09.112Z,15.20
2018-11-07T10:52:37.063Z,15.60
2018-11-07T10:55:05.862Z,15.70
2018-11-07T10:57:33.517Z,16.00
2018-11-07T11:00:01.204Z,16.50
2018-11-07T11:02:34.721Z,17.20
2018-11-07T11:05:02.435Z,17.80
2018-11-07T11:07:30.104Z,18.20
2018-11-07T11:09:57.807Z,18.80
2018-11-07T11:12:25.530Z,18.70
2018-11-07T11:14:53.236Z,18.90
2018-11-07T11:17:20.936Z,19.50
2018-11-07T11:19:48.853Z,19.70
2018-11-07T11:22:16.517Z,20.40
2018-11-07T11:24:44.194Z,20.90
2018-11-07T11:27:11.935Z,21.00
2018-11-07T11:29:39.591Z,21.20
2018-11-07T11:32:07.367Z,22.20
2018-11-07T11:34:35.306Z,22.50
2018-11-07T11:37:02.938Z,23.50
2018-11-07T11:39:30.607Z,24.00
2018-11-07T11:41:58.301Z,23.80
2018-11-07T11:44:25.921Z,23.60
2018-11-07T11:46:53.547Z,25.10
2018-11-07T11:49:21.403Z,25.20
2018-11-07T11:51:49.015Z,25.40
2018-11-07T11:54:16.730Z,24.50
2018-11-07T11:56:44.483Z,24.20
2018-11-07T11:59:12.457Z,24.70
2018-11-07T12:01:39.921Z,23.90
2018-11-07T12:04:07.642Z,24.00
2018-11-07T12:06:35.345Z,23.00
2018-11-07T12:09:04.229Z,24.20
2018-11-07T12:11:31.821Z,24.40
2018-11-07T12:13:59.507Z,25.60
2018-11-07T12:16:27.298Z,25.60
2018-11-07T12:18:56.067Z,25.80
2018-11-07T12:21:23.707Z,25.70
2018-11-07T12:23:51.382Z,27.00
2018-11-07T12:26:20.107Z,25.70
2018-11-07T12:28:47.853Z,26.50
2018-11-07T12:31:15.512Z,25.50
2018-11-07T12:33:43.130Z,25.90
2018-11-07T12:36:10.761Z,26.20
2018-11-07T12:38:38.491Z,25.30
2018-11-07T12:41:06.321Z,24.40
2018-11-07T12:43:34.091Z,23.90
2018-11-07T12:46:01.716Z,24.70
2018-11-07T12:48:29.374Z,24.70
2018-11-07T12:50:57.076Z,23.00
2018-11-07T12:53:24.775Z,22.30
2018-11-07T12:55:52.422Z,23.00
2018-11-07T12:58:20.287Z,22.90
2018-11-07T13:00:47.842Z,22.60
2018-11-07T13:03:15.559Z,22.60
2018-11-07T13:05:43.225Z,22.80
2018-11-07T13:08:10.994Z,23.30
2018-11-07T13:10:38.674Z,23.00
2018-11-07T13:13:06.548Z,22.50
2018-11-07T13:15:34.268Z,23.10
2018-11-07T13:18:02.022Z,22.80
2018-11-07T13:20:29.700Z,22.60
2018-11-07T13:22:57.601Z,21.50
2018-11-07T13:25:25.738Z,21.50
2018-11-07T13:27:53.516Z,21.40
2018-11-07T13:30:22.434Z,21.10
2018-11-07T13:32:50.042Z,20.90
2018-11-07T13:35:18.418Z,21.20
2018-11-07T13:37:47.040Z,21.50
2018-11-07T13:40:16.494Z,21.30
2018-11-07T13:42:44.226Z,21.90
2018-11-07T13:45:13.323Z,22.40
2018-11-07T13:47:42.174Z,23.20
2018-11-07T13:50:10.930Z,23.80
2018-11-07T13:52:38.998Z,23.50
2018-11-07T13:55:08.186Z,22.60
2018-11-07T13:57:35.956Z,22.70
2018-11-07T14:00:07.321Z,22.20
2018-11-07T14:02:35.077Z,22.50
2018-11-07T14:05:02.876Z,22.40
2018-11-07T14:07:31.192Z,21.60
2018-11-07T14:09:59.739Z,21.20
2018-11-07T14:12:27.510Z,21.30
2018-11-07T14:14:55.216Z,21.10
2018-11-07T14:17:22.949Z,20.50
2018-11-07T14:19:50.685Z,20.00
2018-11-07T14:22:18.395Z,19.20
2018-11-07T14:24:46.118Z,18.60
2018-11-07T14:27:13.857Z,18.00
2018-11-07T14:29:41.679Z,17.80
2018-11-07T14:32:09.417Z,17.20
2018-11-07T14:34:37.561Z,16.90
2018-11-07T14:37:05.381Z,17.00
2018-11-07T14:39:33.071Z,16.80
2018-11-07T14:42:00.807Z,16.30
2018-11-07T14:47:03.104Z,15.90
2018-11-07T14:49:30.932Z,15.80
2018-11-07T14:51:58.781Z,15.50
2018-11-07T14:54:26.636Z,15.30
2018-11-07T14:56:54.623Z,15.20
2018-11-07T14:59:22.349Z,15.10
2018-11-07T15:01:50.023Z,14.90
2018-11-07T15:04:17.753Z,14.70
2018-11-07T15:06:45.645Z,14.70
2018-11-07T15:09:13.471Z,14.70
2018-11-07T15:11:41.192Z,14.70
2018-11-07T15:14:08.813Z,14.60
2018-11-07T15:16:36.635Z,14.40
2018-11-07T15:19:04.689Z,14.30
2018-11-07T15:21:32.450Z,14.20
2018-11-07T15:24:00.421Z,14.00
2018-11-07T15:26:28.587Z,13.90
2018-11-07T15:28:56.291Z,13.80
2018-11-07T15:31:23.953Z,13.60
2018-11-07T15:33:51.681Z,13.50
2018-11-07T15:36:19.396Z,13.30
2018-11-07T15:38:47.080Z,13.30
2018-11-07T15:41:14.781Z,13.20
2018-11-07T15:43:42.446Z,13.00
2018-11-07T15:46:10.158Z,12.90
2018-11-07T15:48:37.953Z,12.80
2018-11-07T15:51:09.912Z,12.70
2018-11-07T15:53:44.488Z,12.70
2018-11-07T15:56:12.140Z,12.70
2018-11-07T15:58:39.837Z,12.60
2018-11-07T16:01:07.499Z,12.60
2018-11-07T16:03:41.132Z,12.50
2018-11-07T16:06:09.025Z,12.50
2018-11-07T16:08:36.632Z,12.50
2018-11-07T16:11:04.676Z,12.30
2018-11-07T16:13:32.403Z,12.20
2018-11-07T16:16:00.174Z,12.10
2018-11-07T16:18:27.845Z,12.00
2018-11-07T16:20:55.616Z,12.00
2018-11-07T16:23:23.425Z,11.90
2018-11-07T16:25:51.154Z,11.90
2018-11-07T16:28:18.914Z,11.90
2018-11-07T16:30:46.763Z,11.80
2018-11-07T16:33:14.522Z,11.70
2018-11-07T16:35:42.284Z,11.60
2018-11-07T16:38:10.050Z,11.60
2018-11-07T16:40:37.861Z,11.60
2018-11-07T16:43:05.685Z,11.50
2018-11-07T16:45:33.473Z,11.50
2018-11-07T16:48:01.414Z,11.40
2018-11-07T16:50:29.067Z,11.30
2018-11-07T16:52:56.811Z,11.30
2018-11-07T16:55:24.495Z,11.20
2018-11-07T16:57:52.279Z,11.20
2018-11-07T17:00:20.545Z,11.10
2018-11-07T17:02:49.081Z,11.10
2018-11-07T17:05:17.224Z,11.00
2018-11-07T17:07:45.218Z,10.90
2018-11-07T17:10:13.357Z,10.80
2018-11-07T17:12:41.097Z,10.80
2018-11-07T17:15:08.859Z,10.70
2018-11-07T17:17:37.104Z,10.70
2018-11-07T17:20:06.143Z,10.60
2018-11-07T17:22:34.049Z,10.50
2018-11-07T17:25:01.815Z,10.50
2018-11-07T17:27:29.587Z,10.50
2018-11-07T17:29:57.334Z,10.50
2018-11-07T17:32:25.069Z,10.50
2018-11-07T17:34:59.568Z,10.40
2018-11-07T17:37:27.313Z,10.40
2018-11-07T17:39:55.121Z,10.40
2018-11-07T17:42:22.992Z,10.40
2018-11-07T17:44:50.672Z,10.40
2018-11-07T17:47:18.400Z,10.30
2018-11-07T17:49:46.135Z,10.30
2018-11-07T17:52:13.898Z,10.30
2018-11-07T17:54:41.573Z,10.20
2018-11-07T17:57:09.360Z,10.20
2018-11-07T17:59:37.113Z,10.20
2018-11-07T18:02:05.417Z,10.10
2018-11-07T18:04:33.159Z,10.00
2018-11-07T18:07:00.954Z,10.00
2018-11-07T18:09:28.698Z,10.00
2018-11-07T18:11:56.501Z,10.00
2018-11-07T18:14:24.325Z,9.90
2018-11-07T18:16:52.081Z,9.80
2018-11-07T18:19:19.871Z,9.70
2018-11-07T18:21:47.602Z,9.70
2018-11-07T18:24:15.365Z,9.80
2018-11-07T18:26:43.042Z,9.70
2018-11-07T18:29:10.793Z,9.70
2018-11-07T18:31:38.488Z,9.60
2018-11-07T18:34:06.227Z,9.50
2018-11-07T18:36:33.943Z,9.40
2018-11-07T18:39:01.571Z,9.30
2018-11-07T18:41:29.268Z,9.20
2018-11-07T18:43:56.944Z,9.20
2018-11-07T18:46:24.626Z,9.30
2018-11-07T18:48:52.300Z,9.30
2018-11-07T18:51:20.052Z,9.30
2018-11-07T18:53:47.831Z,9.30
2018-11-07T18:56:15.742Z,9.40
2018-11-07T18:58:43.572Z,9.40
2018-11-07T19:01:11.781Z,9.40
2018-11-07T19:03:42.557Z,9.30
2018-11-07T19:06:10.234Z,9.30
2018-11-07T19:08:38.119Z,9.40
2018-11-07T19:11:05.879Z,9.40
2018-11-07T19:13:33.698Z,9.40
2018-11-07T19:16:01.416Z,9.40
2018-11-07T19:18:30.198Z,9.30
2018-11-07T19:20:57.822Z,9.30
2018-11-07T19:23:25.598Z,9.30
2018-11-07T19:25:53.271Z,9.40
2018-11-07T19:28:20.992Z,9.30
2018-11-07T19:30:48.708Z,9.30
2018-11-07T19:33:16.821Z,9.30
2018-11-07T19:35:44.662Z,9.30
2018-11-07T19:38:12.495Z,9.30
2018-11-07T19:40:40.200Z,9.30
2018-11-07T19:43:07.946Z,9.20
2018-11-07T19:45:35.802Z,9.10
2018-11-07T19:48:03.708Z,9.00
2018-11-07T19:50:31.386Z,8.90
2018-11-07T19:52:59.088Z,8.90
2018-11-07T19:55:26.771Z,8.90
2018-11-07T19:57:57.996Z,8.90
2018-11-07T20:00:25.759Z,8.70
2018-11-07T20:02:53.516Z,8.70
2018-11-07T20:05:21.250Z,8.70
2018-11-07T20:07:48.909Z,8.60
2018-11-07T20:10:18.127Z,8.70
2018-11-07T20:12:46.151Z,8.70
2018-11-07T20:15:14.910Z,8.70
2018-11-07T20:17:42.684Z,8.70
2018-11-07T20:20:10.730Z,8.70
2018-11-07T20:22:38.484Z,8.70
2018-11-07T20:25:07.728Z,8.60
2018-11-07T20:27:35.610Z,8.60
2018-11-07T20:30:04.673Z,8.60
2018-11-07T20:32:32.350Z,8.60
2018-11-07T20:35:00.188Z,8.60
2018-11-07T20:37:27.864Z,8.50
2018-11-07T20:39:55.544Z,8.30
2018-11-07T20:42:23.172Z,8.30
2018-11-07T20:44:50.821Z,8.40
2018-11-07T20:47:18.540Z,8.40
2018-11-07T20:49:46.134Z,8.40
2018-11-07T20:52:13.822Z,8.40
2018-11-07T20:54:41.577Z,8.50
2018-11-07T20:57:09.276Z,8.60
2018-11-07T20:59:36.954Z,8.60
2018-11-07T21:02:04.967Z,8.50
2018-11-07T21:04:32.643Z,8.60
2018-11-07T21:07:00.366Z,8.50
2018-11-07T21:09:27.995Z,8.40
2018-11-07T21:11:55.699Z,8.40
2018-11-07T21:14:23.404Z,8.30
2018-11-07T21:16:51.143Z,8.30
2018-11-07T21:19:18.749Z,8.40
2018-11-07T21:21:46.374Z,8.40
2018-11-07T21:24:14.141Z,8.30
2018-11-07T21:26:41.781Z,8.20
2018-11-07T21:29:09.505Z,8.10
2018-11-07T21:31:37.161Z,8.10
2018-11-07T21:34:04.828Z,8.10
2018-11-07T21:36:32.486Z,8.10
2018-11-07T21:39:00.340Z,8.00
2018-11-07T21:41:29.097Z,8.00
2018-11-07T21:43:56.855Z,8.00
2018-11-07T21:46:24.495Z,8.00
2018-11-07T21:48:52.190Z,8.00
2018-11-07T21:51:19.814Z,8.00
2018-11-07T21:53:47.505Z,8.00
2018-11-07T21:56:15.161Z,8.00
2018-11-07T21:58:42.793Z,8.00
2018-11-07T22:01:10.564Z,7.90
2018-11-07T22:03:38.274Z,7.90
2018-11-07T22:06:05.967Z,7.90
2018-11-07T22:08:33.609Z,7.90
2018-11-07T22:11:01.307Z,7.80
2018-11-07T22:13:29.135Z,7.80
2018-11-07T22:15:56.835Z,7.80
2018-11-07T22:18:24.467Z,7.80
2018-11-07T22:20:52.187Z,7.80
2018-11-07T22:23:19.846Z,7.80
2018-11-07T22:25:47.406Z,7.80
2018-11-07T22:28:15.052Z,7.80
2018-11-07T22:30:42.904Z,7.80
2018-11-07T22:33:10.566Z,7.80
2018-11-07T22:35:38.232Z,7.70
2018-11-07T22:38:05.897Z,7.80
2018-11-07T22:40:33.569Z,7.80
2018-11-07T22:43:01.254Z,7.80
2018-11-07T22:45:28.913Z,7.90
2018-11-07T22:47:56.596Z,7.90
2018-11-07T22:50:24.215Z,7.90
2018-11-07T22:52:51.879Z,7.80
2018-11-07T22:55:19.547Z,7.80
2018-11-07T22:57:47.155Z,7.80
2018-11-07T23:00:22.442Z,7.80
2018-11-07T23:02:53.525Z,7.90
2018-11-07T23:05:21.173Z,8.00
2018-11-07T23:07:49.280Z,8.00
2018-11-07T23:10:16.977Z,8.00
2018-11-07T23:12:44.616Z,8.00
2018-11-07T23:15:16.897Z,8.00
2018-11-07T23:17:44.721Z,8.00
2018-11-07T23:20:12.347Z,7.90
2018-11-07T23:22:40.052Z,7.70
2018-11-07T23:25:07.729Z,7.60
2018-11-07T23:27:35.448Z,7.60
2018-11-07T23:30:03.773Z,7.60
2018-11-07T23:32:31.397Z,7.50
2018-11-07T23:34:59.071Z,7.50
2018-11-07T23:37:26.695Z,7.40
2018-11-07T23:39:54.406Z,7.30
2018-11-07T23:42:22.057Z,7.30
2018-11-07T23:44:49.659Z,7.30
2018-11-07T23:47:17.330Z,7.40
2018-11-07T23:49:44.974Z,7.40
2018-11-07T23:52:17.277Z,7.30
2018-11-07T23:54:44.905Z,7.30
2018-11-07T23:57:12.648Z,7.30
2018-11-07T23:59:40.347Z,7.40
